• Join FlightAware (Why Join?)
  • Login
  • US Flag 
02:54AM EDT


 

Airport Tracker/Info


-or-


 

Live Flight TrackerFlight Track Log ✈ SWA318 ✈ 10-Apr-2013 ✈ KPHX - KMCI

Flight Track Log - Related Links

Times and Time Zones

All times are in EDT time to prevent confusion due to time zone crossing. See the SWA318 flight status page for this flight to view local times or setup timezone preferences in your user account.

Time Position Orientation Groundspeed Altitude Reporting Facility
EDT Latitude Longitude Course Direction KTS MPH feet Rate Location/Type
03:14PM 33.4333 -112.0333 239° Southwest 158 182 1,800  Level Phoenix TRACON
03:14PM 33.4167 -112.0667 239° Southwest 203 234 2,900 2,220 Climbing Phoenix TRACON
03:16PM 33.4000 -112.1500 257° West 232 267 5,900 2,820 Climbing Phoenix TRACON
03:17PM 33.3500 -112.1667 196° South 239 275 8,700 2,040 Climbing Phoenix TRACON
03:18PM 33.3522 -112.0739 88° East 270 311 10,500 1,680 Climbing Albuquerque Center
03:19PM 33.3753 -111.9667 76° East 333 383 12,500 2,160 Climbing Albuquerque Center
03:20PM 33.4006 -111.8503 75° East 361 415 15,000 2,460 Climbing Albuquerque Center
03:21PM 33.4272 -111.7272 75° East 382 440 17,700 3,120 Climbing Albuquerque Center
03:22PM 33.4586 -111.5814 75° East 380 437 21,500 2,700 Climbing Albuquerque Center
03:23PM 33.4844 -111.4647 75° East 369 425 23,300 1,560 Climbing Albuquerque Center
03:24PM 33.5078 -111.3375 78° East 392 451 24,800 1,380 Climbing Albuquerque Center
03:25PM 33.5217 -111.1997 83° East 417 480 26,200 1,320 Climbing Albuquerque Center
03:26PM 33.5375 -111.0586 82° East 428 493 27,600 1,320 Climbing Albuquerque Center
03:27PM 33.5544 -110.9136 82° East 439 505 29,000 1,800 Climbing Albuquerque Center
03:28PM 33.6008 -110.7569 70° East 418 481 31,400 1,680 Climbing Albuquerque Center
03:29PM 33.6406 -110.6331 69° East 406 467 32,500 1,080 Climbing Albuquerque Center
03:30PM 33.6803 -110.5061 69° East 406 467 33,700 1,200 Climbing Albuquerque Center
03:31PM 33.7114 -110.3814 73° East 411 473 35,100 1,020 Climbing Albuquerque Center
03:32PM 33.7414 -110.2228 77° East 410 472 35,800 480 Climbing Albuquerque Center
03:33PM 33.7681 -110.0861 77° East 419 482 36,200 360 Climbing Albuquerque Center
03:34PM 33.7981 -109.9439 76° East 433 498 36,600 300 Climbing Albuquerque Center
03:35PM 33.8267 -109.7997 77° East 443 510 36,900 180 Climbing Albuquerque Center
03:36PM 33.8558 -109.6539 76° East 447 514 37,000  Climbing Albuquerque Center
03:37PM 33.8847 -109.5067 77° East 453 521 37,000  Level Albuquerque Center
03:38PM 33.9183 -109.3292 77° East 456 525 37,000  Level Albuquerque Center
03:39PM 33.9464 -109.1822 77° East 454 522 37,000  Level Albuquerque Center
03:40PM 33.9742 -109.0353 77° East 453 521 37,000  Level Albuquerque Center
03:41PM 34.0208 -108.8967 68° East 449 517 37,000  Level Albuquerque Center
03:42PM 34.0750 -108.7658 63° Northeast 442 509 37,000  Level Albuquerque Center
03:43PM 34.1278 -108.6317 65° Northeast 443 510 37,000  Level Albuquerque Center
03:45PM 34.1931 -108.4736 63° Northeast 443 510 37,000  Level Albuquerque Center
03:46PM 34.2472 -108.3414 64° Northeast 443 510 37,000  Level Albuquerque Center
03:47PM 34.3000 -108.2067 65° Northeast 445 512 37,000  Level Albuquerque Center
03:48PM 34.3589 -108.0617 64° Northeast 447 514 37,000  Level Albuquerque Center
03:49PM 34.4122 -107.9236 65° Northeast 451 519 37,000  Level Albuquerque Center
03:50PM 34.4669 -107.7875 64° Northeast 452 520 37,000  Level Albuquerque Center
03:51PM 34.5211 -107.6494 65° Northeast 454 522 37,000  Level Albuquerque Center
03:52PM 34.5756 -107.5111 64° Northeast 454 522 37,000  Level Albuquerque Center
03:53PM 34.6289 -107.3711 65° Northeast 457 526 37,000  Level Albuquerque Center
03:54PM 34.6944 -107.2039 64° Northeast 459 528 37,000  Level Albuquerque Center
03:55PM 34.7486 -107.0617 65° Northeast 462 532 37,000  Level Albuquerque Center
03:56PM 34.8033 -106.9183 65° Northeast 470 541 37,000  Level Albuquerque Center
03:57PM 34.8653 -106.7614 64° Northeast 466 536 37,000  Level Albuquerque Center
03:58PM 34.9167 -106.6283 65° Northeast 457 526 37,000  Level Albuquerque Center
03:59PM 34.9764 -106.4678 66° East 474 545 37,000  Level Albuquerque Center
04:00PM 35.0303 -106.3239 65° Northeast 472 543 37,000  Level Albuquerque Center
04:01PM 35.0850 -106.1806 65° Northeast 469 540 37,000  Level Albuquerque Center
04:02PM 35.1411 -106.0247 66° East 464 534 37,000  Level Albuquerque Center
04:03PM 35.1961 -105.8781 65° Northeast 471 542 37,000  Level Albuquerque Center
04:04PM 35.2544 -105.7303 64° Northeast 476 548 37,000  Level Albuquerque Center
04:05PM 35.3081 -105.5831 66° East 472 543 37,000  Level Albuquerque Center
04:06PM 35.3614 -105.4339 66° East 473 544 37,000  Level Albuquerque Center
04:07PM 35.4156 -105.2872 66° East 471 542 37,000  Level Albuquerque Center
04:08PM 35.4772 -105.1128 66° East 471 542 37,000  Level Albuquerque Center
04:09PM 35.5308 -104.9642 66° East 471 542 37,000  Level Albuquerque Center
04:10PM 35.5867 -104.8131 66° East 477 549 37,000  Level Albuquerque Center
04:11PM 35.6403 -104.6639 66° East 474 545 37,000  Level Albuquerque Center
04:12PM 35.6939 -104.5142 66° East 472 543 37,000  Level Albuquerque Center
04:13PM 35.7483 -104.3631 66° East 475 547 37,000  Level Albuquerque Center
04:14PM 35.8017 -104.2106 67° East 477 549 37,000  Level Albuquerque Center
04:15PM 35.8556 -104.0561 67° East 482 555 37,000  Level Albuquerque Center
04:16PM 35.9100 -103.9022 66° East 484 557 37,000  Level Albuquerque Center
04:17PM 35.9642 -103.7472 67° East 486 559 37,000  Level Albuquerque Center
04:19PM 36.0261 -103.5686 67° East 481 554 37,000  Level Albuquerque Center
04:20PM 36.0800 -103.4144 67° East 482 555 37,000  Level Albuquerque Center
04:21PM 36.1344 -103.2594 66° East 486 559 37,000  Level Albuquerque Center
04:22PM 36.1853 -103.1028 68° East 486 559 37,000  Level Albuquerque Center
04:23PM 36.2389 -102.9456 67° East 489 563 37,000  Level Albuquerque Center
04:24PM 36.2886 -102.7986 67° East 487 560 37,000  Level Albuquerque Center
04:25PM 36.3500 -102.6153 67° East 481 554 37,000  Level Albuquerque Center
04:26PM 36.4022 -102.4619 67° East 482 555 37,000  Level Albuquerque Center
04:27PM 36.4528 -102.3086 68° East 481 554 37,000  Level Albuquerque Center
04:28PM 36.5031 -102.1556 68° East 479 551 37,000  Level Albuquerque Center
04:29PM 36.5533 -102.0047 67° East 475 547 37,000  Level Albuquerque Center
04:30PM 36.6075 -101.8394 68° East 475 547 37,000  Level Albuquerque Center
04:31PM 36.6550 -101.6925 68° East 478 550 37,000  Level Albuquerque Center
04:32PM 36.7103 -101.5211 68° East 478 550 37,000  Level Albuquerque Center
04:33PM 36.7586 -101.3717 68° East 484 557 37,000  Level Albuquerque Center
04:33PM 36.7742 -101.3214 69° East 484 557 37,000  Level Kansas City Center
04:34PM 36.8225 -101.1722 68° East 485 558 37,000  Level Kansas City Center
04:35PM 36.8783 -100.9978 68° East 487 560 37,000  Level Kansas City Center
04:36PM 36.9261 -100.8461 68° East 490 564 37,000  Level Kansas City Center
04:37PM 36.9814 -100.6708 68° East 489 563 37,000  Level Kansas City Center
04:38PM 37.0292 -100.5197 68° East 489 563 37,000  Level Kansas City Center
04:39PM 37.0825 -100.3444 69° East 486 559 37,000  Level Kansas City Center
04:40PM 37.1292 -100.1958 68° East 484 557 37,000  Level Kansas City Center
04:41PM 37.1833 -100.0197 69° East 485 558 37,000  Level Kansas City Center
04:43PM 37.2289 -99.8672 69° East 488 562 37,000  Level Kansas City Center
04:44PM 37.2833 -99.6881 69° East 493 567 37,000  Level Kansas City Center
04:45PM 37.3306 -99.5333 69° East 496 571 37,000  Level Kansas City Center
04:46PM 37.3858 -99.3542 69° East 507 583 37,000  Level Kansas City Center
04:47PM 37.4367 -99.1906 69° East 505 581 37,000  Level Kansas City Center
04:48PM 37.4800 -99.0239 72° East 505 581 37,000  Level Kansas City Center
04:49PM 37.5292 -98.8592 69° East 503 579 37,000  Level Kansas City Center
04:50PM 37.5769 -98.6958 70° East 500 575 37,000  Level Kansas City Center
04:51PM 37.6242 -98.5328 70° East 497 572 37,000  Level Kansas City Center
04:52PM 37.6831 -98.3389 69° East 496 571 37,000  Level Kansas City Center
04:53PM 37.7300 -98.1761 70° East 495 570 37,000  Level Kansas City Center
04:54PM 37.7800 -97.9933 71° East 493 567 37,000  Level Kansas City Center
04:55PM 37.8272 -97.8214 71° East 508 585 37,000  Level Kansas City Center
04:56PM 37.8742 -97.6522 71° East 508 585 37,000  Level Kansas City Center
04:57PM 37.9264 -97.4778 69° East 512 589 37,000  Level Kansas City Center
04:58PM 37.9719 -97.3131 71° East 516 594 37,000 -60 Level Kansas City Center
04:59PM 38.0194 -97.1450 70° East 511 588 36,900 -480 Descending Kansas City Center
05:00PM 38.0653 -96.9786 71° East 502 578 36,100 -1,320 Descending Kansas City Center
05:01PM 38.1414 -96.7961 62° Northeast 496 571 34,300 -2,160 Descending Kansas City Center
05:02PM 38.2150 -96.6458 58° Northeast 501 577 31,600 -2,520 Descending Kansas City Center
05:03PM 38.2894 -96.4956 58° Northeast 501 577 29,100 -2,580 Descending Kansas City Center
05:04PM 38.3614 -96.3494 58° Northeast 494 568 26,500 -2,700 Descending Kansas City Center
05:05PM 38.4411 -96.1831 59° Northeast 493 567 23,500 -2,640 Descending Kansas City Center
05:06PM 38.5075 -96.0414 59° Northeast 489 563 21,000 -2,580 Descending Kansas City Center
05:07PM 38.5856 -95.8789 58° Northeast 483 556 18,400 -2,160 Descending Kansas City Center
05:08PM 38.6511 -95.7467 58° Northeast 464 534 16,600 -1,920 Descending Kansas City Center
05:09PM 38.7217 -95.5989 59° Northeast 439 505 14,500 -1,920 Descending Kansas City Center
05:10PM 38.7786 -95.4756 59° Northeast 424 488 12,700 -1,260 Descending Kansas City Center
05:11PM 38.8394 -95.3458 59° Northeast 376 433 12,000 -360 Descending Kansas City Center
05:13PM 38.8828 -95.2486 60° Northeast 331 381 12,000 -780 Level Kansas City Center
05:14PM 38.9339 -95.1381 59° Northeast 325 374 10,400 -1,440 Descending Kansas City Center
05:15PM 38.9772 -95.0447 59° Northeast 321 369 9,000 -1,080 Descending Kansas City Center
05:16PM 39.0239 -94.9406 60° Northeast 304 350 8,200 -1,140 Descending Kansas City Center
05:17PM 39.0614 -94.8569 60° Northeast 285 328 6,800 -1,440 Descending Kansas City Center
05:18PM 39.1175 -94.7781 47° Northeast 277 319 5,200 -1,440 Descending Kansas City Center
05:19PM 39.1825 -94.7617 11° North 247 284 3,900 -1,140 Descending Kansas City Center
05:20PM 39.2381 -94.7458 12° North 176 203 3,000 -960 Descending Kansas City Center
05:21PM 39.2728 -94.7350 14° North 137 158 2,000  Descending Kansas City Center
05:22PM 39.3181 -94.7550 341° North 203 234 3,000 480 Climbing Kansas City Center
05:23PM 39.3194 -94.8358 271° West 239 275 3,000  Level Kansas City Center
05:25PM 39.2053 -94.9119 207° Southwest 223 257 3,000  Level Kansas City Center
05:26PM 39.1483 -94.9064 176° South 213 245 3,000  Level Kansas City Center
05:27PM 39.1017 -94.8700 149° Southeast 206 237 3,000  Level Kansas City Center
05:28PM 39.1058 -94.8056 85° East 199 229 3,000  Level Kansas City Center
05:29PM 39.1483 -94.7714 32° Northeast 164 189 3,000  Level Kansas City Center
05:30PM 39.1889 -94.7603 12° North 157 181 3,000 -360 Level Kansas City Center
05:31PM 39.2344 -94.7464 13° North 149 171 2,300 -720 Descending Kansas City Center
05:32PM 39.2700 -94.7358 13° North 139 160 1,600 -660 Descending Kansas City Center
05:33PM 39.3142 -94.7233 12° North 139 160 1,000 -600 Descending Kansas City Center